Time,TemperatureF,DewpointF,PressureIn,WindDirection,WindDirectionDegrees,WindSpeedMPH,WindSpeedGustMPH,Humidity,HourlyPrecipIn,Conditions,Clouds,dailyrainin,SoftwareType,DateUTC
2016-12-02 00:30:00,25.0,-99.9,-100.00,East,98,2.0,6.0,-999,-99.99,,,-99.99,,2016-12-02 06:30:00,
2016-12-02 00:38:00,25.0,-99.9,-100.00,SE,146,1.0,1.0,-999,-99.99,,,-99.99,,2016-12-02 06:38:00,
2016-12-02 01:00:00,25.0,-99.9,-100.00,SSE,152,3.0,6.0,-999,-99.99,,,-99.99,,2016-12-02 07:00:00,
2016-12-02 01:26:00,25.0,-99.9,-100.00,East,98,2.0,6.0,-999,-99.99,,,-99.99,,2016-12-02 07:26:00,
2016-12-02 01:50:00,25.0,-99.9,-100.00,South,175,3.0,3.0,-999,-99.99,,,-99.99,,2016-12-02 07:50:00,
2016-12-02 01:58:00,25.0,-99.9,-100.00,SSE,152,3.0,6.0,-999,-99.99,,,-99.99,,2016-12-02 07:58:00,
2016-12-02 02:15:00,25.0,-99.9,-100.00,NNE,14,1.0,3.0,-999,-99.99,,,-99.99,,2016-12-02 08:15:00,
2016-12-02 02:27:00,25.0,-99.9,-100.00,SSE,167,1.0,1.0,-999,-99.99,,,-99.99,,2016-12-02 08:27:00,
2016-12-02 02:40:00,25.0,-99.9,-100.00,South,175,3.0,3.0,-999,-99.99,,,-99.99,,2016-12-02 08:40:00,
2016-12-02 02:45:00,24.0,-99.9,-100.00,North,-9999,0.0,-999.0,-999,-99.99,,,-99.99,,2016-12-02 08:45:00,
2016-12-02 03:09:00,25.0,-99.9,-100.00,NNE,14,1.0,3.0,-999,-99.99,,,-99.99,,2016-12-02 09:09:00,
2016-12-02 03:34:00,24.0,-99.9,-100.00,North,-9999,0.0,0.0,-999,-99.99,,,-99.99,,2016-12-02 09:34:00,
2016-12-02 05:34:00,23.0,-99.9,-100.00,North,-9999,0.0,0.0,-999,-99.99,,,-99.99,,2016-12-02 11:34:00,
2016-12-02 05:44:00,23.0,-99.9,-100.00,North,-9999,0.0,0.0,-999,-99.99,,,-99.99,,2016-12-02 11:44:00,
2016-12-02 06:07:00,22.0,-99.9,-100.00,South,188,1.0,1.0,-999,-99.99,,,-99.99,,2016-12-02 12:07:00,
2016-12-02 08:10:00,25.0,-99.9,-100.00,North,4,2.0,8.0,-999,-99.99,,,-99.99,,2016-12-02 14:10:00,
2016-12-02 09:01:00,25.0,-99.9,-100.00,North,4,2.0,8.0,-999,-99.99,,,-99.99,,2016-12-02 15:01:00,
2016-12-02 09:09:00,25.0,-99.9,-100.00,North,4,2.0,8.0,-999,-99.99,,,-99.99,,2016-12-02 15:09:00,
2016-12-02 09:30:00,43.0,-99.9,-100.00,NNE,17,6.0,9.0,-999,-99.99,,,-99.99,,2016-12-02 15:30:00,
2016-12-02 10:24:00,43.0,-99.9,-100.00,NNE,17,6.0,9.0,-999,-99.99,,,-99.99,,2016-12-02 16:24:00,
2016-12-02 10:30:00,46.0,-99.9,-100.00,NNW,346,5.0,6.0,-999,-99.99,,,-99.99,,2016-12-02 16:30:00,
2016-12-02 11:24:00,46.0,-99.9,-100.00,NNW,346,5.0,6.0,-999,-99.99,,,-99.99,,2016-12-02 17:24:00,
2016-12-02 15:10:00,49.0,-99.9,-100.00,North,351,4.0,4.0,-999,-99.99,,,-99.99,,2016-12-02 21:10:00,
2016-12-02 15:17:00,49.0,-99.9,-100.00,North,351,4.0,4.0,-999,-99.99,,,-99.99,,2016-12-02 21:17:00,
2016-12-02 15:24:00,49.0,-99.9,-100.00,North,351,4.0,4.0,-999,-99.99,,,-99.99,,2016-12-02 21:24:00,
2016-12-02 15:34:00,48.0,-99.9,-100.00,North,7,8.0,12.0,-999,-99.99,,,-99.99,,2016-12-02 21:34:00,
2016-12-02 15:44:00,48.0,-99.9,-100.00,North,7,8.0,12.0,-999,-99.99,,,-99.99,,2016-12-02 21:44:00,
2016-12-02 16:04:00,44.0,-99.9,-100.00,NNE,13,4.0,8.0,-999,-99.99,,,-99.99,,2016-12-02 22:04:00,
2016-12-02 16:14:00,44.0,-99.9,-100.00,NNE,13,4.0,8.0,-999,-99.99,,,-99.99,,2016-12-02 22:14:00,
2016-12-02 16:24:00,44.0,-99.9,-100.00,NNE,13,4.0,8.0,-999,-99.99,,,-99.99,,2016-12-02 22:24:00,
2016-12-02 17:14:00,39.0,-99.9,-100.00,SE,134,1.0,-999.0,-999,-99.99,,,-99.99,,2016-12-02 23:14:00,
2016-12-02 18:15:00,31.0,-99.9,-100.00,SSW,209,0.0,5.0,-999,-99.99,,,-99.99,,2016-12-03 00:15:00,
2016-12-02 19:25:00,30.0,-99.9,-100.00,North,-9999,0.0,0.0,-999,-99.99,,,-99.99,,2016-12-03 01:25:00,
2016-12-02 20:00:00,31.0,-99.9,-100.00,North,-9999,0.0,0.0,-999,-99.99,,,-99.99,,2016-12-03 02:00:00,
2016-12-02 20:18:00,30.0,-99.9,-100.00,North,-9999,0.0,0.0,-999,-99.99,,,-99.99,,2016-12-03 02:18:00,